createdAt,value
2023-03-07T00:01:38.971Z,7.80
2023-03-07T00:04:05.715Z,8.80
2023-03-07T00:06:32.458Z,9.40
2023-03-07T00:09:00.479Z,8.98
2023-03-07T00:11:27.608Z,8.77
2023-03-07T00:13:54.727Z,8.98
2023-03-07T00:16:22.798Z,8.65
2023-03-07T00:18:49.844Z,8.85
2023-03-07T00:21:21.362Z,9.13
2023-03-07T00:23:48.388Z,9.07
2023-03-07T00:26:20.570Z,8.68
2023-03-07T00:28:48.674Z,8.97
2023-03-07T00:31:15.615Z,8.82
2023-03-07T00:33:42.573Z,9.23
2023-03-07T00:36:15.406Z,9.40
2023-03-07T00:38:42.450Z,9.07
2023-03-07T00:41:11.843Z,8.45
2023-03-07T00:43:38.680Z,9.02
2023-03-07T00:46:05.809Z,8.05
2023-03-07T00:48:37.704Z,9.65
2023-03-07T00:51:05.379Z,8.07
2023-03-07T00:53:32.157Z,9.18
2023-03-07T00:56:01.469Z,7.97
2023-03-07T00:58:29.653Z,8.80
2023-03-07T01:00:56.668Z,8.30
2023-03-07T01:03:23.880Z,8.68
2023-03-07T01:05:51.266Z,8.95
2023-03-07T01:08:18.574Z,9.02
2023-03-07T01:10:45.917Z,9.35
2023-03-07T01:13:12.895Z,8.32
2023-03-07T01:15:39.677Z,7.97
2023-03-07T01:18:07.193Z,9.10
2023-03-07T01:20:35.180Z,8.93
2023-03-07T01:23:02.014Z,8.40
2023-03-07T01:25:28.935Z,8.80
2023-03-07T01:27:56.179Z,8.23
2023-03-07T01:30:24.326Z,8.35
2023-03-07T01:32:58.187Z,9.05
2023-03-07T01:35:25.279Z,8.35
2023-03-07T01:37:52.650Z,8.13
2023-03-07T01:40:20.486Z,8.25
2023-03-07T01:42:47.267Z,7.60
2023-03-07T01:45:13.945Z,7.43
2023-03-07T01:47:41.705Z,8.85
2023-03-07T01:50:11.819Z,8.23
2023-03-07T01:52:40.520Z,8.25
2023-03-07T01:55:14.142Z,7.70
2023-03-07T01:57:41.108Z,7.85
2023-03-07T02:00:12.013Z,7.38
2023-03-07T02:02:39.847Z,8.70
2023-03-07T02:05:25.464Z,7.70
2023-03-07T02:07:52.275Z,7.63
2023-03-07T02:10:20.648Z,7.63
2023-03-07T02:12:47.370Z,7.43
2023-03-07T02:15:14.928Z,7.70
2023-03-07T02:17:42.361Z,7.88
2023-03-07T02:20:13.480Z,8.45
2023-03-07T02:22:41.108Z,8.25
2023-03-07T02:25:21.926Z,8.52
2023-03-07T02:27:49.107Z,7.72
2023-03-07T02:30:15.875Z,8.18
2023-03-07T02:32:42.654Z,7.20
2023-03-07T02:35:20.665Z,7.20
2023-03-07T02:37:49.035Z,7.80
2023-03-07T02:40:17.088Z,8.25
2023-03-07T02:42:43.927Z,7.90
2023-03-07T02:45:13.729Z,7.40
2023-03-07T02:47:42.078Z,7.88
2023-03-07T02:50:09.714Z,7.35
2023-03-07T02:52:36.581Z,9.02
2023-03-07T02:55:03.813Z,7.65
2023-03-07T02:57:30.572Z,8.20
2023-03-07T02:59:57.676Z,7.60
2023-03-07T03:02:24.377Z,7.70
2023-03-07T03:04:51.150Z,8.02
2023-03-07T03:07:17.997Z,7.45
2023-03-07T03:09:44.751Z,8.18
2023-03-07T03:12:11.461Z,7.60
2023-03-07T03:14:38.210Z,8.23
2023-03-07T03:17:04.948Z,7.65
2023-03-07T03:19:31.756Z,7.93
2023-03-07T03:21:59.064Z,7.63
2023-03-07T03:24:25.794Z,7.97
2023-03-07T03:26:55.264Z,7.43
2023-03-07T03:29:21.995Z,7.50
2023-03-07T03:31:48.939Z,7.45
2023-03-07T03:34:15.639Z,7.78
2023-03-07T03:36:42.385Z,8.02
2023-03-07T03:39:11.191Z,7.57
2023-03-07T03:41:38.177Z,7.88
2023-03-07T03:44:04.850Z,8.15
2023-03-07T03:46:31.627Z,7.63
2023-03-07T03:48:58.324Z,6.97
2023-03-07T03:51:25.103Z,7.70
2023-03-07T03:53:52.091Z,8.45
2023-03-07T03:56:21.470Z,7.88
2023-03-07T03:58:49.052Z,7.65
2023-03-07T04:01:15.926Z,8.13
2023-03-07T04:03:45.128Z,8.30
2023-03-07T04:06:14.231Z,8.32
2023-03-07T04:08:41.568Z,8.00
2023-03-07T04:11:08.375Z,8.05
2023-03-07T04:13:35.783Z,8.45
2023-03-07T04:16:06.936Z,8.63
2023-03-07T04:18:34.459Z,7.80
2023-03-07T04:21:01.568Z,8.88
2023-03-07T04:23:28.758Z,8.05
2023-03-07T04:25:57.401Z,8.95
2023-03-07T04:28:41.464Z,8.48
2023-03-07T04:31:08.150Z,9.57
2023-03-07T04:33:34.829Z,8.40
2023-03-07T04:36:01.595Z,8.23
2023-03-07T04:38:28.366Z,7.85
2023-03-07T04:40:55.118Z,8.70
2023-03-07T04:43:21.969Z,8.48
2023-03-07T04:45:48.739Z,8.25
2023-03-07T04:48:15.499Z,8.27
2023-03-07T04:50:42.234Z,8.77
2023-03-07T04:53:08.949Z,8.85
2023-03-07T04:55:35.683Z,8.68
2023-03-07T04:58:02.359Z,8.95
2023-03-07T05:00:29.169Z,8.75
2023-03-07T05:02:58.991Z,9.00
2023-03-07T05:05:25.706Z,9.35
2023-03-07T05:07:52.457Z,10.52
2023-03-07T05:10:19.294Z,8.93
2023-03-07T05:12:45.965Z,8.82
2023-03-07T05:15:12.709Z,8.95
2023-03-07T05:17:39.426Z,9.27
2023-03-07T05:20:07.194Z,9.40
2023-03-07T05:22:34.268Z,8.93
2023-03-07T05:25:01.038Z,8.82
2023-03-07T05:27:27.821Z,9.45
2023-03-07T05:29:54.563Z,9.35
2023-03-07T05:32:21.295Z,9.00
2023-03-07T05:34:48.396Z,8.52
2023-03-07T05:37:15.102Z,8.65
2023-03-07T05:39:41.880Z,9.68
2023-03-07T05:42:08.558Z,9.43
2023-03-07T05:44:35.390Z,9.32
2023-03-07T05:47:03.275Z,9.45
2023-03-07T05:49:29.977Z,8.75
2023-03-07T05:51:56.761Z,8.93
2023-03-07T05:54:23.605Z,8.75
2023-03-07T05:56:50.413Z,8.88
2023-03-07T05:59:17.271Z,8.98
2023-03-07T06:01:44.020Z,8.75
2023-03-07T06:04:10.927Z,8.43
2023-03-07T06:06:37.708Z,9.45
2023-03-07T06:09:05.864Z,9.27
2023-03-07T06:11:33.374Z,9.38
2023-03-07T06:14:00.266Z,8.52
2023-03-07T06:16:27.339Z,8.57
2023-03-07T06:18:54.172Z,8.45
2023-03-07T06:21:20.915Z,8.00
2023-03-07T06:23:47.678Z,8.65
2023-03-07T06:26:15.232Z,7.97
2023-03-07T06:28:42.698Z,9.05
2023-03-07T06:31:15.388Z,7.57
2023-03-07T06:33:43.074Z,8.05
2023-03-07T06:36:12.249Z,7.70
2023-03-07T06:38:39.637Z,8.63
2023-03-07T06:41:06.756Z,7.85
2023-03-07T06:43:33.747Z,7.68
2023-03-07T06:46:01.074Z,8.85
2023-03-07T06:48:27.811Z,7.65
2023-03-07T06:50:54.593Z,7.50
2023-03-07T06:53:21.442Z,7.75
2023-03-07T06:55:49.922Z,8.50
2023-03-07T06:58:16.814Z,8.05
2023-03-07T07:00:43.603Z,8.48
2023-03-07T07:03:16.435Z,8.75
2023-03-07T07:05:43.256Z,7.70
2023-03-07T07:08:10.091Z,8.57
2023-03-07T07:10:37.070Z,7.93
2023-03-07T07:13:04.695Z,7.68
2023-03-07T07:15:32.179Z,8.13
2023-03-07T07:17:59.138Z,7.32
2023-03-07T07:20:25.928Z,8.82
2023-03-07T07:22:52.712Z,8.15
2023-03-07T07:25:19.431Z,7.90
2023-03-07T07:27:46.184Z,7.57
2023-03-07T07:30:14.032Z,7.95
2023-03-07T07:32:40.929Z,9.00
2023-03-07T07:35:08.351Z,7.50
2023-03-07T07:37:35.083Z,7.47
2023-03-07T07:40:01.803Z,8.23
2023-03-07T07:42:30.203Z,7.50
2023-03-07T07:44:59.128Z,8.30
2023-03-07T07:47:28.914Z,7.63
2023-03-07T07:49:56.709Z,7.22
2023-03-07T07:52:25.492Z,7.60
2023-03-07T07:54:52.261Z,7.55
2023-03-07T07:57:23.972Z,7.38
2023-03-07T08:00:11.462Z,6.97
2023-03-07T08:02:38.494Z,8.52
2023-03-07T08:05:10.455Z,7.82
2023-03-07T08:07:37.348Z,7.38
2023-03-07T08:10:18.531Z,8.02
2023-03-07T08:12:48.118Z,8.18
2023-03-07T08:15:17.220Z,7.10
2023-03-07T08:17:44.655Z,7.05
2023-03-07T08:20:11.682Z,7.95
2023-03-07T08:22:38.860Z,7.18
2023-03-07T08:25:06.858Z,7.70
2023-03-07T08:27:33.952Z,6.80
2023-03-07T08:30:01.486Z,8.10
2023-03-07T08:32:28.536Z,6.45
2023-03-07T08:34:55.305Z,6.80
2023-03-07T08:37:24.203Z,6.65
2023-03-07T08:39:51.166Z,6.68
2023-03-07T08:42:24.153Z,6.43
2023-03-07T08:44:50.932Z,7.40
2023-03-07T08:47:17.791Z,7.32
2023-03-07T08:49:44.624Z,6.78
2023-03-07T08:52:11.696Z,6.65
2023-03-07T08:54:38.822Z,7.50
2023-03-07T08:57:06.976Z,7.28
2023-03-07T08:59:39.640Z,7.03
2023-03-07T09:02:13.403Z,6.85
2023-03-07T09:04:48.439Z,7.35
2023-03-07T09:07:22.632Z,6.28
2023-03-07T09:09:49.397Z,5.95
2023-03-07T09:12:16.220Z,6.22
2023-03-07T09:14:42.948Z,6.43
2023-03-07T09:17:10.362Z,6.30
2023-03-07T09:19:37.212Z,5.90
2023-03-07T09:22:04.116Z,6.05
2023-03-07T09:24:31.025Z,7.03
2023-03-07T09:26:57.716Z,6.10
2023-03-07T09:29:24.992Z,5.55
2023-03-07T09:31:52.017Z,5.80
2023-03-07T09:34:19.181Z,5.72
2023-03-07T09:36:46.095Z,5.97
2023-03-07T09:39:16.691Z,5.97
2023-03-07T09:41:58.033Z,5.63
2023-03-07T09:44:30.733Z,5.45
2023-03-07T09:47:24.598Z,4.88
2023-03-07T09:49:51.946Z,5.22
2023-03-07T09:52:29.601Z,5.60
2023-03-07T09:55:00.282Z,5.85
2023-03-07T09:57:36.787Z,4.90
2023-03-07T10:00:23.872Z,4.47
2023-03-07T10:02:55.954Z,5.20
2023-03-07T10:05:22.629Z,5.32
2023-03-07T10:07:49.369Z,4.75
2023-03-07T10:10:22.952Z,4.75
2023-03-07T10:13:26.897Z,4.93
2023-03-07T10:16:21.499Z,4.93
2023-03-07T10:18:52.020Z,4.65
2023-03-07T10:21:52.397Z,4.75
2023-03-07T10:24:24.128Z,4.32
2023-03-07T10:26:50.740Z,4.88
2023-03-07T10:29:19.443Z,5.18
2023-03-07T10:31:49.234Z,5.28
2023-03-07T10:34:27.883Z,5.55
2023-03-07T10:37:08.788Z,6.35
2023-03-07T10:39:53.403Z,6.45
2023-03-07T10:42:25.001Z,7.82
2023-03-07T10:44:52.051Z,5.05
2023-03-07T10:47:24.528Z,5.28
2023-03-07T10:49:53.759Z,5.30
2023-03-07T10:52:41.354Z,5.97
2023-03-07T10:55:30.904Z,5.15
2023-03-07T10:58:26.073Z,5.20
2023-03-07T11:01:10.851Z,5.75
2023-03-07T11:03:59.551Z,5.28
2023-03-07T11:06:32.351Z,5.45
2023-03-07T11:09:17.357Z,5.20
2023-03-07T11:11:49.634Z,4.63
2023-03-07T11:14:18.729Z,5.37
2023-03-07T11:16:50.886Z,5.53
2023-03-07T11:19:34.236Z,5.40
2023-03-07T11:24:38.351Z,5.43
2023-03-07T11:27:05.905Z,4.97
2023-03-07T11:29:34.954Z,5.35
2023-03-07T11:32:14.296Z,6.00
2023-03-07T11:34:49.337Z,5.57
2023-03-07T11:37:29.153Z,5.35
2023-03-07T11:40:19.644Z,6.50
2023-03-07T11:43:22.143Z,5.20
2023-03-07T11:45:55.267Z,5.78
2023-03-07T11:51:04.875Z,6.45
2023-03-07T11:53:40.660Z,6.47
2023-03-07T11:56:27.399Z,5.55
2023-03-07T11:59:31.657Z,4.95
2023-03-07T12:02:03.358Z,5.32
2023-03-07T12:05:05.392Z,6.07
2023-03-07T12:07:54.535Z,6.55
2023-03-07T12:10:38.439Z,5.60
2023-03-07T12:13:47.767Z,5.22
2023-03-07T12:16:14.614Z,4.80
2023-03-07T12:19:00.777Z,4.63
2023-03-07T12:21:57.031Z,4.82
2023-03-07T12:24:38.984Z,4.60
2023-03-07T12:27:25.620Z,5.13
2023-03-07T12:30:27.850Z,4.43
2023-03-07T12:32:54.652Z,5.55
2023-03-07T12:35:21.669Z,6.18
2023-03-07T12:38:10.193Z,5.65
2023-03-07T12:40:48.057Z,5.05
2023-03-07T12:43:22.401Z,4.93
2023-03-07T12:45:52.510Z,5.03
2023-03-07T12:48:25.493Z,4.38
2023-03-07T12:51:33.312Z,4.85
2023-03-07T12:54:40.562Z,4.60
2023-03-07T12:57:11.671Z,4.82
2023-03-07T12:59:43.359Z,5.05
2023-03-07T13:02:29.383Z,5.05
2023-03-07T13:04:57.791Z,4.90
2023-03-07T13:07:26.386Z,4.93
2023-03-07T13:09:54.399Z,4.80
2023-03-07T13:12:23.865Z,4.35
2023-03-07T13:14:56.382Z,4.70
2023-03-07T13:17:35.215Z,5.22
2023-03-07T13:20:15.218Z,5.18
2023-03-07T13:22:50.059Z,5.38
2023-03-07T13:25:23.032Z,4.90
2023-03-07T13:27:54.247Z,5.25
2023-03-07T13:30:26.893Z,5.43
2023-03-07T13:32:56.765Z,4.70
2023-03-07T13:35:34.037Z,4.70
2023-03-07T13:38:19.518Z,4.10
2023-03-07T13:40:46.942Z,4.50
2023-03-07T13:43:23.785Z,3.97
2023-03-07T13:45:58.175Z,5.18
2023-03-07T13:48:30.963Z,4.93
2023-03-07T13:51:09.515Z,4.68
2023-03-07T13:53:50.978Z,4.55
2023-03-07T13:56:24.980Z,4.35
2023-03-07T13:59:02.155Z,3.90
2023-03-07T14:01:35.787Z,4.15
2023-03-07T14:04:39.018Z,3.35
2023-03-07T14:07:15.391Z,3.60
2023-03-07T14:09:56.173Z,3.53
2023-03-07T14:13:05.344Z,4.28
2023-03-07T14:15:48.080Z,4.47
2023-03-07T14:18:45.980Z,3.75
2023-03-07T14:21:48.578Z,5.75
2023-03-07T14:24:33.659Z,4.47
2023-03-07T14:27:04.653Z,3.42
2023-03-07T14:29:31.646Z,4.03
2023-03-07T14:31:59.708Z,5.10
2023-03-07T14:34:33.852Z,5.43
2023-03-07T14:37:13.005Z,5.18
2023-03-07T14:39:39.671Z,5.07
2023-03-07T14:42:18.752Z,4.70
2023-03-07T14:44:55.399Z,5.03
2023-03-07T14:47:35.321Z,5.55
2023-03-07T14:50:14.301Z,3.97
2023-03-07T14:52:41.426Z,4.00
2023-03-07T14:55:19.436Z,4.10
2023-03-07T14:57:53.360Z,3.42
2023-03-07T15:00:20.532Z,3.90
2023-03-07T15:03:00.125Z,4.20
2023-03-07T15:05:33.925Z,3.70
2023-03-07T15:08:02.725Z,3.63
2023-03-07T15:10:37.363Z,3.55
2023-03-07T15:13:06.112Z,3.33
2023-03-07T15:15:37.770Z,3.40
2023-03-07T15:18:07.637Z,3.40
2023-03-07T15:20:34.508Z,3.50
2023-03-07T15:23:07.994Z,3.85
2023-03-07T15:25:39.022Z,3.25
2023-03-07T15:28:17.521Z,3.55
2023-03-07T15:30:53.638Z,3.00
2023-03-07T15:33:20.587Z,3.10
2023-03-07T15:36:13.818Z,2.65
2023-03-07T15:38:50.035Z,3.63
2023-03-07T15:41:34.460Z,3.58
2023-03-07T15:44:17.845Z,3.33
2023-03-07T15:49:54.891Z,3.60
2023-03-07T15:52:29.030Z,3.72
2023-03-07T15:55:00.575Z,4.18
2023-03-07T15:57:34.042Z,4.45
2023-03-07T16:00:21.647Z,2.97
2023-03-07T16:02:52.133Z,3.30
2023-03-07T16:05:23.187Z,3.17
2023-03-07T16:07:54.824Z,3.05
2023-03-07T16:10:24.153Z,3.00
2023-03-07T16:12:50.942Z,2.90
2023-03-07T16:15:19.179Z,3.05
2023-03-07T16:17:46.277Z,3.50
2023-03-07T16:20:15.304Z,4.10
2023-03-07T16:22:44.243Z,3.97
2023-03-07T16:25:14.076Z,4.45
2023-03-07T16:27:41.211Z,3.20
2023-03-07T16:30:19.301Z,4.35
2023-03-07T16:32:47.304Z,3.97
2023-03-07T16:35:21.801Z,3.85
2023-03-07T16:37:49.737Z,4.95
2023-03-07T16:40:17.241Z,3.35
2023-03-07T16:42:47.339Z,3.30
2023-03-07T16:45:26.292Z,4.28
2023-03-07T16:47:57.856Z,4.07
2023-03-07T16:50:27.816Z,4.07
2023-03-07T16:52:54.704Z,3.60
2023-03-07T16:55:21.597Z,3.85
2023-03-07T16:57:53.028Z,3.83
2023-03-07T17:00:22.008Z,5.18
2023-03-07T17:02:49.221Z,4.57
2023-03-07T17:05:21.440Z,4.45
2023-03-07T17:07:48.331Z,4.20
2023-03-07T17:10:15.308Z,3.83
2023-03-07T17:12:42.533Z,3.92
2023-03-07T17:15:17.614Z,4.40
2023-03-07T17:17:44.772Z,5.57
2023-03-07T17:20:17.101Z,5.30
2023-03-07T17:22:44.073Z,5.85
2023-03-07T17:25:10.973Z,4.55
2023-03-07T17:27:41.907Z,4.85
2023-03-07T17:30:19.416Z,4.55
2023-03-07T17:32:46.820Z,4.40
2023-03-07T17:35:15.077Z,5.05
2023-03-07T17:37:43.254Z,5.07
2023-03-07T17:40:13.758Z,5.45
2023-03-07T17:42:44.231Z,5.53
2023-03-07T17:45:12.685Z,5.53
2023-03-07T17:47:40.261Z,6.65
2023-03-07T17:50:07.987Z,4.80
2023-03-07T17:52:35.192Z,5.63
2023-03-07T17:55:02.012Z,5.15
2023-03-07T17:57:29.572Z,4.63
2023-03-07T17:59:56.483Z,5.55
2023-03-07T18:02:23.537Z,4.82
2023-03-07T18:04:51.677Z,5.32
2023-03-07T18:07:19.918Z,5.38
2023-03-07T18:09:48.466Z,4.93
2023-03-07T18:12:19.971Z,5.70
2023-03-07T18:14:46.786Z,4.70
2023-03-07T18:17:13.627Z,4.75
2023-03-07T18:19:40.375Z,4.75
2023-03-07T18:22:07.064Z,5.13
2023-03-07T18:24:33.846Z,6.00
2023-03-07T18:27:01.214Z,6.43
2023-03-07T18:29:29.038Z,6.35
2023-03-07T18:31:55.958Z,4.85
2023-03-07T18:34:23.090Z,5.05
2023-03-07T18:36:51.854Z,6.18
2023-03-07T18:39:20.321Z,5.03
2023-03-07T18:41:48.310Z,5.40
2023-03-07T18:44:15.105Z,6.82
2023-03-07T18:46:42.203Z,5.85
2023-03-07T18:49:10.187Z,4.90
2023-03-07T18:51:38.276Z,6.22
2023-03-07T18:54:04.987Z,6.68
2023-03-07T18:56:31.769Z,6.05
2023-03-07T18:58:59.206Z,5.25
2023-03-07T19:01:30.771Z,5.85
2023-03-07T19:04:02.031Z,5.88
2023-03-07T19:06:41.855Z,5.90
2023-03-07T19:09:16.186Z,5.72
2023-03-07T19:11:43.032Z,5.50
2023-03-07T19:14:09.758Z,5.78
2023-03-07T19:16:36.634Z,6.43
2023-03-07T19:19:03.858Z,6.07
2023-03-07T19:21:31.274Z,5.43
2023-03-07T19:24:01.691Z,6.40
2023-03-07T19:26:28.491Z,6.10
2023-03-07T19:28:56.233Z,5.78
2023-03-07T19:31:25.706Z,6.43
2023-03-07T19:33:52.475Z,5.88
2023-03-07T19:36:26.123Z,5.10
2023-03-07T19:38:59.073Z,4.55
2023-03-07T19:41:27.292Z,4.57
2023-03-07T19:43:55.606Z,4.47
2023-03-07T19:46:22.672Z,4.93
2023-03-07T19:48:49.498Z,4.07
2023-03-07T19:51:18.236Z,4.72
2023-03-07T19:53:45.339Z,4.43
2023-03-07T19:56:15.173Z,4.60
2023-03-07T19:58:41.891Z,4.78
2023-03-07T20:01:14.156Z,4.18
2023-03-07T20:03:41.100Z,4.73
2023-03-07T20:06:08.465Z,4.13
2023-03-07T20:08:35.500Z,4.80
2023-03-07T20:11:19.865Z,4.03
2023-03-07T20:13:47.824Z,3.70
2023-03-07T20:16:16.340Z,3.95
2023-03-07T20:18:43.205Z,4.15
2023-03-07T20:21:12.397Z,3.83
2023-03-07T20:23:39.558Z,3.97
2023-03-07T20:26:11.937Z,4.45
2023-03-07T20:28:39.017Z,3.45
2023-03-07T20:31:09.014Z,3.70
2023-03-07T20:33:36.683Z,3.55
2023-03-07T20:36:05.956Z,3.42
2023-03-07T20:38:33.505Z,4.15
2023-03-07T20:41:08.380Z,3.78
2023-03-07T20:43:35.296Z,3.70
2023-03-07T20:46:06.425Z,3.58
2023-03-07T20:48:33.712Z,3.10
2023-03-07T20:51:07.951Z,3.55
2023-03-07T20:53:34.806Z,3.58
2023-03-07T20:56:02.999Z,3.40
2023-03-07T20:58:30.204Z,3.33
2023-03-07T21:00:57.731Z,3.63
2023-03-07T21:03:24.711Z,3.35
2023-03-07T21:05:55.352Z,3.58
2023-03-07T21:08:22.232Z,3.45
2023-03-07T21:11:01.299Z,2.88
2023-03-07T21:13:28.304Z,3.63
2023-03-07T21:15:56.942Z,2.78
2023-03-07T21:18:23.967Z,3.45
2023-03-07T21:20:50.828Z,3.00
2023-03-07T21:23:17.746Z,3.13
2023-03-07T21:25:45.353Z,3.53
2023-03-07T21:28:12.347Z,3.28
2023-03-07T21:30:39.377Z,3.38
2023-03-07T21:33:06.134Z,3.15
2023-03-07T21:35:39.765Z,3.55
2023-03-07T21:38:06.726Z,3.33
2023-03-07T21:40:33.640Z,3.72
2023-03-07T21:43:00.428Z,3.17
2023-03-07T21:45:27.323Z,3.95
2023-03-07T21:47:55.211Z,3.88
2023-03-07T21:50:22.026Z,3.85
2023-03-07T21:52:48.984Z,4.47
2023-03-07T21:55:20.703Z,3.30
2023-03-07T21:57:47.565Z,3.33
2023-03-07T22:00:16.928Z,3.58
2023-03-07T22:02:44.554Z,3.17
2023-03-07T22:05:12.253Z,3.38
2023-03-07T22:07:39.340Z,3.42
2023-03-07T22:10:07.400Z,3.33
2023-03-07T22:12:34.300Z,3.42
2023-03-07T22:15:00.983Z,3.67
2023-03-07T22:17:27.945Z,3.45
2023-03-07T22:19:54.578Z,3.30
2023-03-07T22:22:21.337Z,3.78
2023-03-07T22:24:52.156Z,4.07
2023-03-07T22:27:19.186Z,3.45
2023-03-07T22:29:45.899Z,4.75
2023-03-07T22:32:12.650Z,4.05
2023-03-07T22:34:39.350Z,3.85
2023-03-07T22:37:06.198Z,4.07
2023-03-07T22:39:32.959Z,4.03
2023-03-07T22:41:59.723Z,3.75
2023-03-07T22:44:26.379Z,3.75
2023-03-07T22:46:53.688Z,3.85
2023-03-07T22:49:20.364Z,4.63
2023-03-07T22:51:47.172Z,3.72
2023-03-07T22:54:13.875Z,5.07
2023-03-07T22:56:40.575Z,5.00
2023-03-07T22:59:07.227Z,5.43
2023-03-07T23:01:33.961Z,4.40
2023-03-07T23:04:00.790Z,5.07
2023-03-07T23:06:29.726Z,5.35
2023-03-07T23:08:57.321Z,5.15
2023-03-07T23:11:25.142Z,5.38
2023-03-07T23:13:52.331Z,4.70
2023-03-07T23:16:21.658Z,5.78
2023-03-07T23:18:51.694Z,5.50
2023-03-07T23:21:20.409Z,5.07
2023-03-07T23:23:47.517Z,5.38
2023-03-07T23:26:20.206Z,5.28
2023-03-07T23:28:46.965Z,5.80
2023-03-07T23:31:21.910Z,5.75
2023-03-07T23:33:49.292Z,5.75
2023-03-07T23:36:17.373Z,6.93
2023-03-07T23:38:46.260Z,7.03
2023-03-07T23:41:13.730Z,5.80
2023-03-07T23:43:40.396Z,6.93
2023-03-07T23:46:07.247Z,6.82
2023-03-07T23:48:33.936Z,6.95
2023-03-07T23:51:00.897Z,6.30
2023-03-07T23:53:27.564Z,6.32
2023-03-07T23:55:54.262Z,6.00
2023-03-07T23:58:21.062Z,6.25
